Time;durP1;ratioP1;P1;durP2;ratioP2;P2;SDS_P1;SDS_P2;PMS_P1;PMS_P2;Temp;Humidity;BMP_temperature;BMP_pressure;BME280_temperature;BME280_humidity;BME280_pressure;Samples;Min_cycle;Max_cycle;Signal;HPM_P1;HPM_P2
2022/12/22 03:26:39;;;;;;;1.80;1.70;;;;;;;;;;5052065;28;20696;-83
2022/12/22 03:29:06;;;;;;;2.57;2.33;;;;;;;;;;5052531;28;20218;-83
2022/12/22 03:31:33;;;;;;;1.63;1.57;;;;;;;;;;5052270;28;20245;-83
2022/12/22 03:34:01;;;;;;;2.20;2.00;;;;;;;;;;5052684;28;20202;-83
2022/12/22 03:36:28;;;;;;;2.53;2.03;;;;;;;;;;5052100;28;20244;-82
2022/12/22 03:38:55;;;;;;;2.53;2.33;;;;;;;;;;5052244;28;20206;-83
2022/12/22 03:46:52;;;;;;;4.70;2.10;;;;;;;;;;5051642;28;20236;-83
2022/12/22 03:49:21;;;;;;;2.93;1.87;;;;;;;;;;5052253;28;20226;-84
2022/12/22 03:51:50;;;;;;;2.23;2.00;;;;;;;;;;5051141;28;20648;-83
2022/12/22 03:54:18;;;;;;;1.47;1.47;;;;;;;;;;5052502;28;20252;-83
2022/12/22 03:56:45;;;;;;;2.60;2.07;;;;;;;;;;5051510;28;20589;-82
2022/12/22 03:59:12;;;;;;;1.80;1.70;;;;;;;;;;5048162;28;20226;-83
2022/12/22 04:01:40;;;;;;;1.80;1.70;;;;;;;;;;5051371;28;20234;-83
2022/12/22 04:04:07;;;;;;;2.53;2.07;;;;;;;;;;5052116;28;20613;-84
2022/12/22 04:06:36;;;;;;;1.60;1.50;;;;;;;;;;5039469;28;20233;-83
2022/12/22 04:09:03;;;;;;;1.47;1.47;;;;;;;;;;5051680;28;20206;-83
2022/12/22 04:14:15;;;;;;;3.90;2.30;;;;;;;;;;5051825;28;20279;-83
2022/12/22 04:16:42;;;;;;;6.90;2.47;;;;;;;;;;5051542;28;20242;-83
2022/12/22 04:19:09;;;;;;;3.03;1.90;;;;;;;;;;5051262;28;20230;-83
2022/12/22 04:21:37;;;;;;;2.67;2.00;;;;;;;;;;5050898;28;20230;-82
2022/12/22 04:24:05;;;;;;;1.87;1.77;;;;;;;;;;5051924;28;20214;-83
2022/12/22 04:26:33;;;;;;;5.70;2.23;;;;;;;;;;5051275;28;20229;-83
2022/12/22 04:29:00;;;;;;;3.30;2.60;;;;;;;;;;5051303;28;20241;-83
2022/12/22 04:31:27;;;;;;;3.93;2.10;;;;;;;;;;5051142;28;20427;-82
2022/12/22 04:33:54;;;;;;;2.90;2.50;;;;;;;;;;5051564;28;20251;-83
2022/12/22 04:36:21;;;;;;;3.90;2.07;;;;;;;;;;5051271;28;20264;-83
2022/12/22 04:38:50;;;;;;;1.83;1.73;;;;;;;;;;5051582;28;20206;-85
2022/12/22 04:41:17;;;;;;;1.90;1.80;;;;;;;;;;5051003;28;20662;-84
2022/12/22 04:43:44;;;;;;;1.90;1.80;;;;;;;;;;5052127;28;20198;-84
2022/12/22 04:46:11;;;;;;;3.93;2.83;;;;;;;;;;5051247;28;20237;-84
2022/12/22 04:48:38;;;;;;;3.33;2.10;;;;;;;;;;5051234;28;20750;-84
2022/12/22 04:51:05;;;;;;;3.23;2.13;;;;;;;;;;5051223;28;20245;-84
2022/12/22 04:53:32;;;;;;;5.63;2.40;;;;;;;;;;5051686;28;20209;-84
2022/12/22 04:56:02;;;;;;;2.63;2.30;;;;;;;;;;5051235;28;20561;-84
2022/12/22 04:58:29;;;;;;;3.43;2.60;;;;;;;;;;5051834;28;20214;-84
2022/12/22 05:00:56;;;;;;;4.90;2.43;;;;;;;;;;5050999;28;20238;-81
2022/12/22 05:03:24;;;;;;;3.70;2.40;;;;;;;;;;5051624;28;20205;-83
2022/12/22 05:05:51;;;;;;;4.60;2.50;;;;;;;;;;5051036;28;20237;-82
2022/12/22 05:08:19;;;;;;;2.33;1.83;;;;;;;;;;5051010;28;20630;-82
2022/12/22 05:10:46;;;;;;;2.57;2.10;;;;;;;;;;5050730;28;20238;-82
2022/12/22 05:13:14;;;;;;;2.63;2.27;;;;;;;;;;5051001;28;20643;-83
2022/12/22 05:15:42;;;;;;;4.30;3.17;;;;;;;;;;5050416;28;20241;-83
2022/12/22 05:18:09;;;;;;;2.37;2.17;;;;;;;;;;5050842;28;20210;-84
2022/12/22 05:20:36;;;;;;;4.63;2.93;;;;;;;;;;5046390;28;20320;-83
2022/12/22 05:23:03;;;;;;;2.93;2.63;;;;;;;;;;5047076;28;20229;-83
2022/12/22 05:25:30;;;;;;;2.60;1.80;;;;;;;;;;5050520;28;20634;-82
2022/12/22 05:27:57;;;;;;;2.00;1.90;;;;;;;;;;5051417;28;20206;-81
2022/12/22 05:30:25;;;;;;;2.20;2.00;;;;;;;;;;5035726;28;20238;-83
2022/12/22 05:32:53;;;;;;;1.37;1.30;;;;;;;;;;5031593;28;20213;-83
2022/12/22 05:35:20;;;;;;;2.33;2.13;;;;;;;;;;5040916;28;20209;-82
2022/12/22 05:37:47;;;;;;;1.97;1.73;;;;;;;;;;5054956;28;20198;-82
2022/12/22 05:40:14;;;;;;;2.10;1.90;;;;;;;;;;5053993;28;20337;-82
2022/12/22 05:42:41;;;;;;;1.47;1.37;;;;;;;;;;5056052;28;20720;-82
2022/12/22 05:45:11;;;;;;;2.00;1.90;;;;;;;;;;5056087;28;20209;-84
2022/12/22 05:47:39;;;;;;;1.97;1.87;;;;;;;;;;5059298;28;20209;-82
2022/12/22 05:50:07;;;;;;;1.80;1.70;;;;;;;;;;5054705;28;20638;-82
2022/12/22 05:52:34;;;;;;;2.70;1.70;;;;;;;;;;5055603;28;20209;-82
2022/12/22 05:55:01;;;;;;;2.47;2.03;;;;;;;;;;5055592;28;20206;-82
2022/12/22 05:57:28;;;;;;;2.03;1.87;;;;;;;;;;5054922;28;20225;-82
2022/12/22 05:59:55;;;;;;;2.30;2.10;;;;;;;;;;5055016;28;20241;-82
2022/12/22 06:02:22;;;;;;;1.90;1.80;;;;;;;;;;5074021;28;20233;-82
2022/12/22 06:04:51;;;;;;;1.80;1.70;;;;;;;;;;5075116;28;20205;-82
2022/12/22 06:07:18;;;;;;;1.60;1.60;;;;;;;;;;5074537;28;20240;-83
2022/12/22 06:09:45;;;;;;;1.80;1.70;;;;;;;;;;5074865;28;20225;-81
2022/12/22 06:12:13;;;;;;;2.03;1.90;;;;;;;;;;5074912;28;20237;-82
2022/12/22 06:14:40;;;;;;;4.07;1.97;;;;;;;;;;5075037;28;20248;-82
2022/12/22 06:17:07;;;;;;;2.27;2.07;;;;;;;;;;5074083;28;20669;-81
2022/12/22 06:19:34;;;;;;;2.10;2.00;;;;;;;;;;5074188;28;20244;-82
2022/12/22 06:22:02;;;;;;;1.90;1.80;;;;;;;;;;5074034;28;20233;-80
2022/12/22 06:24:29;;;;;;;1.97;1.70;;;;;;;;;;5074494;28;20213;-81
2022/12/22 06:26:56;;;;;;;1.97;1.87;;;;;;;;;;5073913;28;20241;-81
2022/12/22 06:29:24;;;;;;;2.13;2.03;;;;;;;;;;5074319;28;20227;-81
2022/12/22 06:31:51;;;;;;;2.83;1.97;;;;;;;;;;5073737;28;20633;-82
2022/12/22 06:34:18;;;;;;;2.10;2.00;;;;;;;;;;5073791;28;20205;-82
2022/12/22 06:36:45;;;;;;;2.30;2.07;;;;;;;;;;5073422;28;20240;-81
2022/12/22 06:39:14;;;;;;;2.60;2.17;;;;;;;;;;5073554;28;20232;-82
2022/12/22 06:44:26;;;;;;;2.10;1.90;;;;;;;;;;5073691;28;20546;-82
2022/12/22 06:46:53;;;;;;;2.63;2.40;;;;;;;;;;5072634;28;20269;-82
2022/12/22 06:49:20;;;;;;;2.80;2.37;;;;;;;;;;5072661;28;20278;-82
2022/12/22 06:51:47;;;;;;;2.83;1.90;;;;;;;;;;5073176;28;20233;-82
2022/12/22 06:54:16;;;;;;;4.73;2.83;;;;;;;;;;5073787;28;20251;-82
2022/12/22 06:56:43;;;;;;;2.57;2.37;;;;;;;;;;5072915;28;20237;-82
2022/12/22 06:59:10;;;;;;;1.80;1.70;;;;;;;;;;5073548;28;20581;-82
2022/12/22 07:01:38;;;;;;;2.20;2.10;;;;;;;;;;5072782;28;20237;-82
2022/12/22 07:04:05;;;;;;;3.30;2.40;;;;;;;;;;5073573;28;20233;-82
2022/12/22 07:06:32;;;;;;;1.87;1.77;;;;;;;;;;5072833;28;20240;-82
2022/12/22 07:08:59;;;;;;;4.67;2.03;;;;;;;;;;5072945;28;20202;-82
2022/12/22 07:11:27;;;;;;;5.07;2.43;;;;;;;;;;5072836;28;20282;-83
2022/12/22 07:13:54;;;;;;;2.70;2.00;;;;;;;;;;5073452;28;20209;-82
2022/12/22 07:16:22;;;;;;;3.23;2.20;;;;;;;;;;5072649;28;20233;-83
2022/12/22 07:18:49;;;;;;;4.27;2.27;;;;;;;;;;5072878;28;20232;-84
2022/12/22 07:21:16;;;;;;;2.20;1.97;;;;;;;;;;5072424;28;20657;-82
2022/12/22 07:23:43;;;;;;;2.77;2.07;;;;;;;;;;5073205;28;20239;-83
2022/12/22 07:26:11;;;;;;;3.30;2.07;;;;;;;;;;5052973;28;20238;-84
2022/12/22 07:28:40;;;;;;;2.53;1.90;;;;;;;;;;5052786;28;20194;-83
2022/12/22 07:31:08;;;;;;;1.97;1.87;;;;;;;;;;5052618;28;20272;-82
2022/12/22 07:33:35;;;;;;;2.70;2.07;;;;;;;;;;5053073;28;20213;-83
2022/12/22 07:36:03;;;;;;;3.23;1.87;;;;;;;;;;5052179;28;20617;-83
2022/12/22 07:38:32;;;;;;;5.10;2.43;;;;;;;;;;5052512;28;20210;-84
2022/12/22 07:40:59;;;;;;;2.97;2.20;;;;;;;;;;5054771;28;20241;-83
2022/12/22 07:43:25;;;;;;;2.60;2.20;;;;;;;;;;5055724;28;20202;-83
2022/12/22 07:45:53;;;;;;;3.93;2.37;;;;;;;;;;5055598;28;20226;-83
2022/12/22 07:51:06;;;;;;;4.60;2.30;;;;;;;;;;5056342;28;20325;-83
2022/12/22 07:53:34;;;;;;;2.63;1.80;;;;;;;;;;5053139;28;20212;-82
2022/12/22 07:56:05;;;;;;;2.87;2.10;;;;;;;;;;5052504;28;20240;-82
2022/12/22 07:58:32;;;;;;;4.20;2.40;;;;;;;;;;5055218;28;20236;-82
2022/12/22 08:01:01;;;;;;;2.43;2.20;;;;;;;;;;5062452;28;20238;-82
2022/12/22 08:03:28;;;;;;;2.30;2.10;;;;;;;;;;5052338;28;20198;-83
2022/12/22 08:05:55;;;;;;;2.83;1.83;;;;;;;;;;5052421;28;20229;-83
2022/12/22 08:08:22;;;;;;;3.83;2.10;;;;;;;;;;5052495;28;20233;-83
2022/12/22 08:10:49;;;;;;;3.97;2.13;;;;;;;;;;5051197;28;20226;-82
2022/12/22 08:13:17;;;;;;;5.03;2.43;;;;;;;;;;5051546;28;20576;-82
2022/12/22 08:15:44;;;;;;;3.17;1.80;;;;;;;;;;5049527;28;20256;-82
2022/12/22 08:18:12;;;;;;;1.43;1.23;;;;;;;;;;5051601;28;20232;-83
2022/12/22 08:20:39;;;;;;;3.53;2.20;;;;;;;;;;5047128;28;20242;-82
2022/12/22 08:23:06;;;;;;;3.77;2.23;;;;;;;;;;5035617;28;20209;-83
2022/12/22 08:25:34;;;;;;;6.20;2.57;;;;;;;;;;5032181;28;20234;-82
2022/12/22 08:28:02;;;;;;;4.53;2.03;;;;;;;;;;5032873;28;20222;-82
2022/12/22 08:30:29;;;;;;;5.73;2.50;;;;;;;;;;5032152;28;20230;-82
2022/12/22 08:32:56;;;;;;;2.50;1.57;;;;;;;;;;5032412;28;20693;-81
2022/12/22 08:35:25;;;;;;;3.77;1.93;;;;;;;;;;5032027;28;20242;-82
2022/12/22 08:37:53;;;;;;;5.40;2.63;;;;;;;;;;5032476;28;20211;-81
2022/12/22 08:40:21;;;;;;;6.63;2.07;;;;;;;;;;5031666;28;20593;-82
2022/12/22 08:42:49;;;;;;;6.73;2.20;;;;;;;;;;5034668;28;20218;-83
2022/12/22 08:45:17;;;;;;;7.70;2.60;;;;;;;;;;5041920;28;20569;-82
2022/12/22 08:47:44;;;;;;;4.53;2.03;;;;;;;;;;5031056;28;20206;-82
2022/12/22 08:50:11;;;;;;;4.90;2.10;;;;;;;;;;5031752;28;20230;-82
2022/12/22 08:52:39;;;;;;;4.00;1.80;;;;;;;;;;5037063;28;20217;-81
2022/12/22 08:55:07;;;;;;;5.43;2.10;;;;;;;;;;5032008;28;20218;-82
2022/12/22 08:57:35;;;;;;;10.20;2.63;;;;;;;;;;5032345;28;20237;-81
2022/12/22 09:00:02;;;;;;;4.97;1.70;;;;;;;;;;5032046;28;20608;-81
2022/12/22 09:02:29;;;;;;;3.93;1.80;;;;;;;;;;5051236;28;20243;-82
2022/12/22 09:04:56;;;;;;;3.90;2.23;;;;;;;;;;5031483;28;20206;-82
2022/12/22 09:07:23;;;;;;;3.30;1.83;;;;;;;;;;5031426;28;20250;-82
2022/12/22 09:09:51;;;;;;;3.17;2.20;;;;;;;;;;5032014;28;20222;-82
2022/12/22 09:12:19;;;;;;;8.83;3.47;;;;;;;;;;5034679;28;20234;-82
2022/12/22 09:14:46;;;;;;;9.53;4.60;;;;;;;;;;5037737;28;20206;-83
2022/12/22 09:17:13;;;;;;;10.33;4.47;;;;;;;;;;5035678;28;20313;-82
2022/12/22 09:19:40;;;;;;;8.83;3.10;;;;;;;;;;5036123;28;20341;-81
2022/12/22 09:22:08;;;;;;;4.37;2.50;;;;;;;;;;5046536;28;20238;-81
2022/12/22 09:24:35;;;;;;;5.03;2.87;;;;;;;;;;5052885;28;20256;-81
2022/12/22 09:27:05;;;;;;;5.33;2.83;;;;;;;;;;5054803;28;20236;-81
2022/12/22 09:29:32;;;;;;;3.70;2.30;;;;;;;;;;5054751;28;20698;-81
2022/12/22 09:31:59;;;;;;;5.33;2.47;;;;;;;;;;5054144;28;20229;-81
2022/12/22 09:34:26;;;;;;;3.60;2.60;;;;;;;;;;5054626;28;20586;-81
2022/12/22 09:36:53;;;;;;;7.93;2.33;;;;;;;;;;5054333;28;20241;-81
2022/12/22 09:39:20;;;;;;;7.73;3.07;;;;;;;;;;5053886;28;20225;-81
2022/12/22 09:41:49;;;;;;;3.60;2.47;;;;;;;;;;5068284;28;20716;-82
2022/12/22 09:44:21;;;;;;;8.67;3.10;;;;;;;;;;5074763;28;20243;-81
2022/12/22 09:46:49;;;;;;;9.50;4.20;;;;;;;;;;5073689;28;20228;-82
2022/12/22 09:49:17;;;;;;;7.27;3.80;;;;;;;;;;5067354;28;20729;-81
2022/12/22 09:51:47;;;;;;;5.70;3.20;;;;;;;;;;5053927;28;20686;-81
2022/12/22 09:54:14;;;;;;;8.63;3.77;;;;;;;;;;5054257;28;20194;-81
2022/12/22 09:56:41;;;;;;;4.63;2.43;;;;;;;;;;5053668;28;20261;-81
2022/12/22 09:59:10;;;;;;;6.17;3.37;;;;;;;;;;5050863;28;20725;-81
2022/12/22 10:01:55;;;;;;;10.83;3.43;;;;;;;;;;5034824;28;20234;-81
2022/12/22 10:04:26;;;;;;;4.67;2.40;;;;;;;;;;5034287;28;20654;-81
2022/12/22 10:06:56;;;;;;;8.17;2.10;;;;;;;;;;5034967;28;20248;-81
2022/12/22 10:09:25;;;;;;;2.73;1.87;;;;;;;;;;5034408;28;20234;-81
2022/12/22 10:11:52;;;;;;;5.20;2.23;;;;;;;;;;5033637;28;20231;-81
2022/12/22 10:14:19;;;;;;;7.17;2.33;;;;;;;;;;5034298;28;20220;-81
2022/12/22 10:16:48;;;;;;;4.17;2.03;;;;;;;;;;5033603;28;20239;-82
2022/12/22 10:19:15;;;;;;;2.63;1.83;;;;;;;;;;5034042;28;20222;-81
2022/12/22 10:21:43;;;;;;;2.70;1.83;;;;;;;;;;5033084;28;20266;-81
2022/12/22 10:24:17;;;;;;;7.27;2.60;;;;;;;;;;5034141;28;20213;-81
2022/12/22 10:26:44;;;;;;;3.40;2.07;;;;;;;;;;5033201;28;20240;-81
2022/12/22 10:29:13;;;;;;;3.17;1.60;;;;;;;;;;5033792;28;20231;-81
2022/12/22 10:31:57;;;;;;;4.27;1.70;;;;;;;;;;5033084;28;20304;-81
2022/12/22 10:34:25;;;;;;;5.83;1.77;;;;;;;;;;5033635;28;20217;-81
2022/12/22 10:36:53;;;;;;;4.03;2.03;;;;;;;;;;5033193;28;20237;-82
2022/12/22 10:39:21;;;;;;;2.20;1.50;;;;;;;;;;5033363;28;20227;-82
2022/12/22 10:41:50;;;;;;;2.40;1.80;;;;;;;;;;5032728;28;20656;-81
2022/12/22 10:44:20;;;;;;;1.60;1.50;;;;;;;;;;5033685;28;20199;-82
2022/12/22 10:46:48;;;;;;;2.73;1.47;;;;;;;;;;5033305;28;20284;-81
2022/12/22 10:49:20;;;;;;;2.70;1.50;;;;;;;;;;5035061;28;20233;-81
2022/12/22 10:51:51;;;;;;;1.50;1.40;;;;;;;;;;5034024;28;20234;-81
2022/12/22 10:54:28;;;;;;;3.13;1.67;;;;;;;;;;5034927;28;20187;-82
2022/12/22 10:57:06;;;;;;;2.30;1.50;;;;;;;;;;5032855;28;20233;-81
2022/12/22 10:59:34;;;;;;;3.30;1.70;;;;;;;;;;5033102;28;20229;-81
2022/12/22 11:02:23;;;;;;;2.53;1.53;;;;;;;;;;5032654;28;20238;-82
2022/12/22 11:04:50;;;;;;;2.27;1.80;;;;;;;;;;5033056;28;20225;-81
2022/12/22 11:07:19;;;;;;;2.00;1.63;;;;;;;;;;5032496;28;20239;-82
2022/12/22 11:09:46;;;;;;;1.93;1.70;;;;;;;;;;5036963;28;20223;-81
2022/12/22 11:12:17;;;;;;;2.63;2.03;;;;;;;;;;5070558;28;20237;-82
2022/12/22 11:14:49;;;;;;;2.93;1.80;;;;;;;;;;5072791;28;20205;-82
2022/12/22 11:17:18;;;;;;;3.30;1.70;;;;;;;;;;5054238;28;20264;-82
2022/12/22 11:19:51;;;;;;;1.30;1.30;;;;;;;;;;5052939;28;20263;-82
2022/12/22 11:22:25;;;;;;;5.30;1.70;;;;;;;;;;5052640;28;20233;-82
2022/12/22 11:24:59;;;;;;;1.60;1.50;;;;;;;;;;5053532;28;20194;-82
2022/12/22 11:27:30;;;;;;;3.50;1.93;;;;;;;;;;5052978;28;20280;-81
2022/12/22 11:30:02;;;;;;;3.50;1.80;;;;;;;;;;5053230;28;20222;-82
2022/12/22 11:32:37;;;;;;;1.57;1.40;;;;;;;;;;5052494;28;20226;-82
2022/12/22 11:35:07;;;;;;;2.70;1.80;;;;;;;;;;5052017;28;20197;-81
2022/12/22 11:37:38;;;;;;;1.50;1.40;;;;;;;;;;5053176;28;20289;-82
2022/12/22 11:40:12;;;;;;;2.33;1.43;;;;;;;;;;5052791;28;20237;-82
2022/12/22 11:42:49;;;;;;;1.40;1.30;;;;;;;;;;5052865;28;20214;-82
2022/12/22 11:45:23;;;;;;;1.90;1.30;;;;;;;;;;5053009;28;20194;-81
2022/12/22 11:47:59;;;;;;;1.80;1.70;;;;;;;;;;5052899;28;20190;-81
2022/12/22 11:50:29;;;;;;;1.63;1.40;;;;;;;;;;5052774;28;20288;-81
2022/12/22 11:53:05;;;;;;;2.60;1.50;;;;;;;;;;5053007;28;20295;-81
2022/12/22 11:55:34;;;;;;;1.20;1.20;;;;;;;;;;5056316;28;20233;-81
2022/12/22 11:58:08;;;;;;;1.40;1.30;;;;;;;;;;5052772;28;20233;-81
2022/12/22 12:00:37;;;;;;;2.17;2.07;;;;;;;;;;5052126;28;20230;-81
2022/12/22 12:03:21;;;;;;;1.50;1.50;;;;;;;;;;5052782;28;20236;-81
2022/12/22 12:05:57;;;;;;;1.20;1.20;;;;;;;;;;5051814;28;20713;-82
2022/12/22 12:08:30;;;;;;;1.10;1.10;;;;;;;;;;5052488;28;20201;-81
2022/12/22 12:11:01;;;;;;;0.80;0.80;;;;;;;;;;5051811;28;20250;-81
2022/12/22 12:13:34;;;;;;;1.10;1.10;;;;;;;;;;5053315;28;20202;-81
2022/12/22 12:16:04;;;;;;;1.03;1.00;;;;;;;;;;5052912;28;20234;-81
2022/12/22 12:18:37;;;;;;;1.27;1.00;;;;;;;;;;5052438;28;20206;-82
2022/12/22 12:21:12;;;;;;;0.80;0.80;;;;;;;;;;5052042;28;20237;-82
2022/12/22 12:23:47;;;;;;;1.10;1.10;;;;;;;;;;5051698;28;20580;-82
2022/12/22 12:26:18;;;;;;;1.20;1.10;;;;;;;;;;5051415;28;20240;-82
2022/12/22 12:28:54;;;;;;;1.23;1.23;;;;;;;;;;5051437;28;20212;-81
2022/12/22 12:31:24;;;;;;;1.10;1.10;;;;;;;;;;5051480;28;20237;-81
2022/12/22 12:33:53;;;;;;;1.50;1.40;;;;;;;;;;5051484;28;20202;-81
2022/12/22 12:36:24;;;;;;;0.90;0.90;;;;;;;;;;5051836;28;20234;-81
2022/12/22 12:38:57;;;;;;;0.90;0.90;;;;;;;;;;5058433;28;20221;-82
2022/12/22 12:41:26;;;;;;;1.03;1.03;;;;;;;;;;5060878;28;20238;-81
2022/12/22 12:43:54;;;;;;;1.20;1.20;;;;;;;;;;5054080;28;20234;-81
2022/12/22 12:46:40;;;;;;;1.50;1.40;;;;;;;;;;5054999;28;20237;-81
2022/12/22 12:49:34;;;;;;;1.10;1.10;;;;;;;;;;5064881;28;20229;-80
2022/12/22 12:52:01;;;;;;;1.80;1.40;;;;;;;;;;5063020;28;20226;-81
2022/12/22 12:54:39;;;;;;;1.67;1.57;;;;;;;;;;5057688;28;20198;-81
2022/12/22 12:57:23;;;;;;;2.00;1.47;;;;;;;;;;5056908;28;20260;-81
2022/12/22 12:59:50;;;;;;;1.97;1.80;;;;;;;;;;5050093;28;20309;-82
2022/12/22 13:02:31;;;;;;;1.67;1.57;;;;;;;;;;5035937;28;20238;-81
2022/12/22 13:05:02;;;;;;;2.90;1.47;;;;;;;;;;5036616;28;20207;-82
2022/12/22 13:07:47;;;;;;;1.50;1.40;;;;;;;;;;5035750;28;20234;-82
2022/12/22 13:10:23;;;;;;;1.50;1.40;;;;;;;;;;5035212;28;20296;-82
2022/12/22 13:12:52;;;;;;;2.13;1.80;;;;;;;;;;5035181;28;20221;-82
2022/12/22 13:15:30;;;;;;;1.77;1.67;;;;;;;;;;5034935;28;20217;-82
2022/12/22 13:17:57;;;;;;;1.70;1.60;;;;;;;;;;5035357;28;20214;-81
2022/12/22 13:20:26;;;;;;;2.90;1.50;;;;;;;;;;5037430;28;20239;-83
2022/12/22 13:22:53;;;;;;;2.83;1.70;;;;;;;;;;5053288;28;20362;-83
2022/12/22 13:25:23;;;;;;;1.60;1.50;;;;;;;;;;5054537;28;20587;-83
2022/12/22 13:27:51;;;;;;;1.50;1.40;;;;;;;;;;5054564;28;20202;-85
2022/12/22 13:30:20;;;;;;;2.10;1.60;;;;;;;;;;5054084;28;20229;-83
2022/12/22 13:32:49;;;;;;;1.70;1.60;;;;;;;;;;5055249;28;20217;-84
2022/12/22 13:35:17;;;;;;;1.73;1.60;;;;;;;;;;5055194;28;20217;-86
2022/12/22 13:37:47;;;;;;;1.70;1.60;;;;;;;;;;5055033;28;20233;-85
2022/12/22 13:40:16;;;;;;;1.60;1.50;;;;;;;;;;5054576;28;20743;-84
2022/12/22 13:42:46;;;;;;;1.30;1.30;;;;;;;;;;5054600;28;20225;-83
2022/12/22 13:45:16;;;;;;;1.30;1.30;;;;;;;;;;5054479;28;20202;-83
2022/12/22 13:47:44;;;;;;;1.20;1.20;;;;;;;;;;5054747;28;20582;-82
2022/12/22 13:50:17;;;;;;;3.03;1.50;;;;;;;;;;5054281;28;20233;-82
2022/12/22 13:52:44;;;;;;;1.30;1.30;;;;;;;;;;5054305;28;20194;-83
2022/12/22 13:55:14;;;;;;;1.40;1.30;;;;;;;;;;5053853;28;20210;-81
2022/12/22 13:57:42;;;;;;;1.20;1.20;;;;;;;;;;5054027;28;20578;-82
2022/12/22 14:00:19;;;;;;;2.07;1.30;;;;;;;;;;5053712;28;20297;-82
2022/12/22 14:02:46;;;;;;;1.67;1.63;;;;;;;;;;5054181;28;20209;-82
2022/12/22 14:05:15;;;;;;;2.13;2.00;;;;;;;;;;5053876;28;20576;-83
2022/12/22 14:07:57;;;;;;;1.70;1.60;;;;;;;;;;5054126;28;20241;-82
2022/12/22 14:10:26;;;;;;;1.40;1.40;;;;;;;;;;5053722;28;20241;-82
2022/12/22 14:12:53;;;;;;;1.60;1.50;;;;;;;;;;5053967;28;20202;-82
2022/12/22 14:15:22;;;;;;;1.30;1.30;;;;;;;;;;5053301;28;20221;-82
2022/12/22 14:17:49;;;;;;;1.63;1.53;;;;;;;;;;5053672;28;20209;-82
2022/12/22 14:20:18;;;;;;;1.27;1.27;;;;;;;;;;5053254;28;20233;-79
2022/12/22 14:22:46;;;;;;;1.50;1.40;;;;;;;;;;5053545;28;20661;-79
2022/12/22 14:25:17;;;;;;;1.30;1.30;;;;;;;;;;5053167;28;20697;-79
2022/12/22 14:27:46;;;;;;;1.40;1.40;;;;;;;;;;5053647;28;20198;-80
2022/12/22 14:30:16;;;;;;;1.63;1.60;;;;;;;;;;5053178;28;20225;-81
2022/12/22 14:32:46;;;;;;;2.23;2.13;;;;;;;;;;5053501;28;20657;-79
2022/12/22 14:35:22;;;;;;;2.07;1.90;;;;;;;;;;5053250;28;20210;-80
2022/12/22 14:37:50;;;;;;;1.63;1.53;;;;;;;;;;5053808;28;20385;-79
2022/12/22 14:40:29;;;;;;;1.40;1.30;;;;;;;;;;5053069;28;20230;-80
2022/12/22 14:42:57;;;;;;;1.70;1.60;;;;;;;;;;5053901;28;20301;-79
2022/12/22 14:45:24;;;;;;;1.83;1.73;;;;;;;;;;5053003;28;20582;-80
2022/12/22 14:47:53;;;;;;;2.00;1.90;;;;;;;;;;5053263;28;20210;-79
2022/12/22 14:50:22;;;;;;;2.40;2.20;;;;;;;;;;5053029;28;20719;-79
2022/12/22 14:52:50;;;;;;;1.60;1.50;;;;;;;;;;5053189;28;20205;-82
2022/12/22 14:55:26;;;;;;;1.70;1.60;;;;;;;;;;5052549;28;20233;-81
2022/12/22 14:57:54;;;;;;;1.80;1.70;;;;;;;;;;5057856;28;20301;-82
2022/12/22 15:00:32;;;;;;;2.10;1.60;;;;;;;;;;5053348;28;20226;-82
2022/12/22 15:03:01;;;;;;;1.30;1.30;;;;;;;;;;5053703;28;20213;-81
2022/12/22 15:05:31;;;;;;;1.50;1.40;;;;;;;;;;5053651;28;20241;-81
2022/12/22 15:07:59;;;;;;;2.27;2.00;;;;;;;;;;5056372;28;20217;-83
2022/12/22 15:10:27;;;;;;;1.50;1.50;;;;;;;;;;5053270;28;20709;-83
2022/12/22 15:12:56;;;;;;;1.80;1.70;;;;;;;;;;5053915;28;20729;-83
2022/12/22 15:15:23;;;;;;;1.53;1.43;;;;;;;;;;5054057;28;20239;-83
2022/12/22 15:17:52;;;;;;;1.27;1.27;;;;;;;;;;5052386;28;20206;-83
2022/12/22 15:20:22;;;;;;;1.40;1.40;;;;;;;;;;5073154;22;20233;-80
2022/12/22 15:22:49;;;;;;;2.37;1.37;;;;;;;;;;5071884;28;20225;-81
2022/12/22 15:25:17;;;;;;;1.83;1.70;;;;;;;;;;5071973;28;20212;-81
2022/12/22 15:27:44;;;;;;;1.40;1.40;;;;;;;;;;5072067;28;20206;-81
2022/12/22 15:30:12;;;;;;;2.00;1.90;;;;;;;;;;5063508;28;20236;-81
2022/12/22 15:32:39;;;;;;;1.80;1.70;;;;;;;;;;5052116;28;20728;-81
2022/12/22 15:35:14;;;;;;;1.67;1.57;;;;;;;;;;5051559;28;20210;-79
2022/12/22 15:37:43;;;;;;;2.47;1.60;;;;;;;;;;5059322;28;20254;-81
2022/12/22 15:40:13;;;;;;;1.90;1.80;;;;;;;;;;5070794;28;20842;-81
2022/12/22 15:42:40;;;;;;;2.40;1.80;;;;;;;;;;5071863;28;20711;-81
2022/12/22 15:45:08;;;;;;;1.90;1.80;;;;;;;;;;5071289;28;20206;-82
2022/12/22 15:47:35;;;;;;;1.80;1.70;;;;;;;;;;5072516;28;20217;-81
2022/12/22 15:50:02;;;;;;;1.80;1.70;;;;;;;;;;5071585;28;20225;-81
2022/12/22 15:52:29;;;;;;;1.80;1.70;;;;;;;;;;5072353;28;20202;-81
2022/12/22 15:54:58;;;;;;;2.00;1.90;;;;;;;;;;5072249;28;20213;-81
2022/12/22 15:57:25;;;;;;;2.67;2.27;;;;;;;;;;5071143;28;20289;-81
2022/12/22 15:59:52;;;;;;;2.43;2.20;;;;;;;;;;5071327;28;20236;-81
2022/12/22 16:02:19;;;;;;;2.37;2.20;;;;;;;;;;5071005;28;20589;-81
2022/12/22 16:04:46;;;;;;;2.23;2.03;;;;;;;;;;5071490;28;20225;-81
2022/12/22 16:07:13;;;;;;;2.87;2.60;;;;;;;;;;5070893;28;20294;-82
2022/12/22 16:09:41;;;;;;;2.87;2.50;;;;;;;;;;5071289;28;20225;-83
2022/12/22 16:12:12;;;;;;;3.07;1.90;;;;;;;;;;5071837;28;20601;-85
2022/12/22 16:14:39;;;;;;;2.67;2.47;;;;;;;;;;5074337;28;20217;-83
2022/12/22 16:17:06;;;;;;;3.07;2.70;;;;;;;;;;5071585;28;20286;-83
2022/12/22 16:19:33;;;;;;;2.10;2.00;;;;;;;;;;5076117;28;20568;-83
2022/12/22 16:22:00;;;;;;;2.80;2.60;;;;;;;;;;5071723;28;20290;-84
2022/12/22 16:24:29;;;;;;;3.77;2.93;;;;;;;;;;5071654;28;20220;-85
2022/12/22 16:26:57;;;;;;;2.57;2.37;;;;;;;;;;5071102;28;20244;-85
2022/12/22 16:29:26;;;;;;;2.50;2.30;;;;;;;;;;5071582;28;20583;-84
2022/12/22 16:31:53;;;;;;;2.93;2.70;;;;;;;;;;5071369;28;20233;-85
2022/12/22 16:34:20;;;;;;;2.83;2.40;;;;;;;;;;5071856;28;20212;-83
2022/12/22 16:36:47;;;;;;;3.80;2.23;;;;;;;;;;5071374;28;20233;-84
2022/12/22 16:39:14;;;;;;;3.47;2.63;;;;;;;;;;5071424;28;20208;-83
2022/12/22 16:41:44;;;;;;;3.00;2.60;;;;;;;;;;5071380;28;20233;-84
2022/12/22 16:44:15;;;;;;;6.47;4.63;;;;;;;;;;5071482;28;20325;-83
2022/12/22 16:46:43;;;;;;;7.33;4.33;;;;;;;;;;5071317;28;20244;-83
2022/12/22 16:49:10;;;;;;;5.20;4.47;;;;;;;;;;5071246;28;20206;-82
2022/12/22 16:51:40;;;;;;;5.20;4.70;;;;;;;;;;5071040;28;20278;-84
2022/12/22 16:54:07;;;;;;;57.70;23.20;;;;;;;;;;5071567;28;20201;-83
2022/12/22 16:56:34;;;;;;;61.47;28.70;;;;;;;;;;5071155;28;20291;-83
2022/12/22 16:59:03;;;;;;;21.10;11.17;;;;;;;;;;5071420;28;20287;-83
2022/12/22 17:01:35;;;;;;;38.70;18.33;;;;;;;;;;5058887;28;20732;-83
2022/12/22 17:04:06;;;;;;;61.93;25.90;;;;;;;;;;5051684;28;20215;-83
2022/12/22 17:06:33;;;;;;;16.40;8.27;;;;;;;;;;5050887;28;20234;-83
2022/12/22 17:09:02;;;;;;;19.10;9.80;;;;;;;;;;5051165;28;20747;-84
2022/12/22 17:11:31;;;;;;;40.50;16.73;;;;;;;;;;5046118;28;20240;-86
2022/12/22 17:14:01;;;;;;;187.67;70.60;;;;;;;;;;5049749;28;20198;-83
2022/12/22 17:16:28;;;;;;;133.97;53.03;;;;;;;;;;5051102;28;20232;-85
2022/12/22 17:18:55;;;;;;;148.33;57.97;;;;;;;;;;5051387;28;20210;-84
2022/12/22 17:21:23;;;;;;;45.03;22.10;;;;;;;;;;5050721;28;20283;-84
2022/12/22 17:23:51;;;;;;;134.40;50.10;;;;;;;;;;5051403;28;20230;-83
2022/12/22 17:26:20;;;;;;;50.10;22.93;;;;;;;;;;5050920;28;20265;-84
2022/12/22 17:28:47;;;;;;;296.80;129.10;;;;;;;;;;5051062;28;20205;-84
2022/12/22 17:31:15;;;;;;;6.57;5.57;;;;;;;;;;5050721;28;20720;-85
2022/12/22 17:33:42;;;;;;;70.53;35.27;;;;;;;;;;5054833;28;20233;-84
2022/12/22 17:36:15;;;;;;;22.83;13.20;;;;;;;;;;5054536;28;20233;-84
2022/12/22 17:38:44;;;;;;;20.07;8.47;;;;;;;;;;5054592;28;20198;-84
2022/12/22 17:41:13;;;;;;;7.03;5.80;;;;;;;;;;5054382;28;20242;-85
2022/12/22 17:43:40;;;;;;;11.80;8.37;;;;;;;;;;5054860;28;20236;-83
2022/12/22 17:46:10;;;;;;;18.40;12.87;;;;;;;;;;5054045;28;20241;-84
2022/12/22 17:48:37;;;;;;;34.17;21.40;;;;;;;;;;5055215;28;20210;-81
2022/12/22 17:51:04;;;;;;;25.97;17.03;;;;;;;;;;5054563;28;20260;-81
2022/12/22 17:53:31;;;;;;;16.33;11.80;;;;;;;;;;5054615;28;20674;-82
2022/12/22 17:56:01;;;;;;;17.30;12.30;;;;;;;;;;5054173;28;20241;-83
2022/12/22 17:58:28;;;;;;;20.53;13.90;;;;;;;;;;5054517;28;20190;-83
2022/12/22 18:00:55;;;;;;;16.37;11.40;;;;;;;;;;5054152;28;20732;-83
2022/12/22 18:03:22;;;;;;;15.10;11.40;;;;;;;;;;5054423;28;20206;-83
2022/12/22 18:05:49;;;;;;;14.20;9.60;;;;;;;;;;5053715;28;20299;-83
2022/12/22 18:08:18;;;;;;;16.33;8.90;;;;;;;;;;5054333;28;20206;-83
2022/12/22 18:10:46;;;;;;;18.10;11.70;;;;;;;;;;5053847;28;20238;-83
2022/12/22 18:13:16;;;;;;;21.60;9.57;;;;;;;;;;5054359;28;20202;-83
2022/12/22 18:15:43;;;;;;;18.00;6.87;;;;;;;;;;5054097;28;20236;-83
2022/12/22 18:18:12;;;;;;;15.57;6.80;;;;;;;;;;5054647;28;20222;-83
2022/12/22 18:20:39;;;;;;;16.97;7.70;;;;;;;;;;5053872;28;20233;-83
2022/12/22 18:23:11;;;;;;;21.03;7.77;;;;;;;;;;5054756;28;20210;-83
2022/12/22 18:25:38;;;;;;;15.93;5.27;;;;;;;;;;5054355;28;20640;-83
2022/12/22 18:28:05;;;;;;;19.20;7.30;;;;;;;;;;5054699;28;20548;-83
2022/12/22 18:30:33;;;;;;;26.70;6.33;;;;;;;;;;5054147;28;20244;-83